createdAt,value
2022-08-03T00:02:05.875Z,3.50
2022-08-03T00:06:16.135Z,3.90
2022-08-03T00:10:23.607Z,3.70
2022-08-03T00:14:31.309Z,3.80
2022-08-03T00:18:39.272Z,3.70
2022-08-03T00:22:46.707Z,4.20
2022-08-03T00:26:54.187Z,3.50
2022-08-03T00:31:02.084Z,3.90
2022-08-03T00:35:24.141Z,4.30
2022-08-03T00:39:41.031Z,4.10
2022-08-03T00:43:49.457Z,3.60
2022-08-03T00:47:57.476Z,3.90
2022-08-03T00:52:09.516Z,3.80
2022-08-03T00:56:18.428Z,3.90
2022-08-03T01:00:27.693Z,4.10
2022-08-03T01:04:35.664Z,4.30
2022-08-03T01:08:49.249Z,4.10
2022-08-03T01:13:02.595Z,4.50
2022-08-03T01:17:16.669Z,4.70
2022-08-03T01:21:40.273Z,3.90
2022-08-03T01:26:01.170Z,4.40
2022-08-03T01:30:11.281Z,4.20
2022-08-03T01:34:21.359Z,4.40
2022-08-03T01:38:33.703Z,3.90
2022-08-03T01:42:43.421Z,3.90
2022-08-03T01:46:52.353Z,4.80
2022-08-03T01:51:00.978Z,4.60
2022-08-03T01:55:10.629Z,4.30
2022-08-03T01:59:21.388Z,4.30
2022-08-03T02:03:29.778Z,4.50
2022-08-03T02:07:37.929Z,4.90
2022-08-03T02:11:46.962Z,4.40
2022-08-03T02:15:55.785Z,4.20
2022-08-03T02:20:07.059Z,4.70
2022-08-03T02:24:15.224Z,5.10
2022-08-03T02:28:23.972Z,4.50
2022-08-03T02:32:35.560Z,4.50
2022-08-03T02:36:44.590Z,4.90
2022-08-03T02:40:52.959Z,5.50
2022-08-03T02:45:03.898Z,4.70
2022-08-03T02:49:41.037Z,4.40
2022-08-03T02:53:42.184Z,5.00
2022-08-03T02:57:51.062Z,5.30
2022-08-03T03:02:00.624Z,5.20
2022-08-03T03:06:09.401Z,5.40
2022-08-03T03:10:17.217Z,5.00
2022-08-03T03:14:33.959Z,5.10
2022-08-03T03:18:42.881Z,4.80
2022-08-03T03:22:51.568Z,5.30
2022-08-03T03:26:59.754Z,5.20
2022-08-03T03:31:08.522Z,5.60
2022-08-03T03:35:17.386Z,5.20
2022-08-03T03:39:25.368Z,5.40
2022-08-03T03:43:32.980Z,5.70
2022-08-03T03:47:40.837Z,6.00
2022-08-03T03:51:48.450Z,5.50
2022-08-03T03:56:02.208Z,5.10
2022-08-03T04:00:13.382Z,5.30
2022-08-03T04:04:38.569Z,6.00
2022-08-03T04:09:15.365Z,5.60
2022-08-03T04:13:24.640Z,6.00
2022-08-03T04:17:34.150Z,6.90
2022-08-03T04:21:45.166Z,6.50
2022-08-03T04:25:54.395Z,6.40
2022-08-03T04:30:02.626Z,6.40
2022-08-03T04:34:10.936Z,6.00
2022-08-03T04:38:20.368Z,7.60
2022-08-03T04:42:29.280Z,7.60
2022-08-03T04:46:40.624Z,7.60
2022-08-03T04:50:58.412Z,6.70
2022-08-03T04:55:06.976Z,5.70
2022-08-03T04:59:14.792Z,6.40
2022-08-03T05:03:25.000Z,6.00
2022-08-03T05:07:36.302Z,5.90
2022-08-03T05:11:44.297Z,5.60
2022-08-03T05:15:53.119Z,6.40
2022-08-03T05:20:00.807Z,5.90
2022-08-03T05:24:10.173Z,6.40
2022-08-03T05:28:17.916Z,5.70
2022-08-03T05:32:25.501Z,5.40
2022-08-03T05:36:33.428Z,5.30
2022-08-03T05:40:56.669Z,5.00
2022-08-03T05:45:16.302Z,5.20
2022-08-03T05:49:28.726Z,4.90
2022-08-03T05:53:39.893Z,4.70
2022-08-03T05:57:59.906Z,4.60
2022-08-03T06:02:08.237Z,4.60
2022-08-03T06:06:19.934Z,4.30
2022-08-03T06:10:36.449Z,4.60
2022-08-03T06:14:47.666Z,4.50
2022-08-03T06:18:59.195Z,4.10
2022-08-03T06:23:17.779Z,4.80
2022-08-03T06:27:37.298Z,4.20
2022-08-03T06:31:49.582Z,4.20
2022-08-03T06:36:00.723Z,4.10
2022-08-03T06:40:15.259Z,4.10
2022-08-03T06:44:29.645Z,3.90
2022-08-03T06:48:39.546Z,3.70
2022-08-03T06:52:46.875Z,3.80
2022-08-03T06:57:02.766Z,3.70
2022-08-03T07:01:10.440Z,3.80
2022-08-03T07:05:25.149Z,3.90
2022-08-03T07:09:36.562Z,4.10
2022-08-03T07:13:48.103Z,4.10
2022-08-03T07:17:59.874Z,4.10
2022-08-03T07:22:18.252Z,3.50
2022-08-03T07:26:29.452Z,3.40
2022-08-03T07:30:42.451Z,3.60
2022-08-03T07:34:49.961Z,3.80
2022-08-03T07:39:17.362Z,3.60
2022-08-03T07:43:28.185Z,3.20
2022-08-03T07:47:43.185Z,3.60
2022-08-03T07:52:22.070Z,3.60
2022-08-03T07:56:38.906Z,3.00
2022-08-03T08:00:47.711Z,2.90
2022-08-03T08:04:55.122Z,3.00
2022-08-03T08:09:02.414Z,3.00
2022-08-03T08:13:10.232Z,2.90
2022-08-03T08:17:18.123Z,2.90
2022-08-03T08:21:26.540Z,2.70
2022-08-03T08:25:56.563Z,2.70
2022-08-03T08:30:12.256Z,2.40
2022-08-03T08:34:20.103Z,2.80
2022-08-03T08:38:29.512Z,2.80
2022-08-03T08:42:36.933Z,3.10
2022-08-03T08:46:44.858Z,3.30
2022-08-03T08:50:55.816Z,3.10
2022-08-03T08:55:05.238Z,3.10
2022-08-03T08:59:48.381Z,2.80
2022-08-03T09:03:59.071Z,3.00
2022-08-03T09:08:08.864Z,2.70
2022-08-03T09:12:39.183Z,2.70
2022-08-03T09:17:02.260Z,2.50
2022-08-03T09:21:32.956Z,2.50
2022-08-03T09:25:43.953Z,2.60
2022-08-03T09:29:53.086Z,2.70
2022-08-03T09:34:02.476Z,2.50
2022-08-03T09:38:15.484Z,2.50
2022-08-03T09:42:27.654Z,2.30
2022-08-03T09:46:40.985Z,2.20
2022-08-03T09:51:12.749Z,2.40
2022-08-03T09:56:33.783Z,2.50
2022-08-03T10:00:03.058Z,2.70
2022-08-03T10:04:17.428Z,2.30
2022-08-03T10:08:26.621Z,2.50
2022-08-03T10:12:34.429Z,2.40
2022-08-03T10:16:43.515Z,2.30
2022-08-03T10:20:53.653Z,2.60
2022-08-03T10:25:04.726Z,2.40
2022-08-03T10:29:16.770Z,2.30
2022-08-03T10:33:49.652Z,2.70
2022-08-03T10:38:01.211Z,2.50
2022-08-03T10:42:13.513Z,2.40
2022-08-03T10:46:24.530Z,2.30
2022-08-03T10:50:32.099Z,2.20
2022-08-03T10:55:03.474Z,2.20
2022-08-03T10:59:27.418Z,2.10
2022-08-03T11:03:36.374Z,2.30
2022-08-03T11:07:44.236Z,2.40
2022-08-03T11:12:29.867Z,1.90
2022-08-03T11:16:42.287Z,2.30
2022-08-03T11:20:54.663Z,2.20
2022-08-03T11:25:04.909Z,2.40
2022-08-03T11:29:31.840Z,2.10
2022-08-03T11:33:40.973Z,2.10
2022-08-03T11:38:07.307Z,1.80
2022-08-03T11:42:41.914Z,2.10
2022-08-03T11:46:49.665Z,2.30
2022-08-03T11:51:00.104Z,2.30
2022-08-03T11:55:12.534Z,1.90
2022-08-03T11:59:22.340Z,1.90
2022-08-03T12:03:35.542Z,2.30
2022-08-03T12:08:03.476Z,1.90
2022-08-03T12:12:12.372Z,2.20
2022-08-03T12:16:25.681Z,3.60
2022-08-03T12:20:35.520Z,2.00
2022-08-03T12:24:47.637Z,2.00
2022-08-03T12:28:55.751Z,2.10
2022-08-03T12:33:03.308Z,2.40
2022-08-03T12:37:22.293Z,2.20
2022-08-03T12:41:36.137Z,2.00
2022-08-03T12:45:45.304Z,2.10
2022-08-03T12:49:54.322Z,2.00
2022-08-03T12:54:03.679Z,2.40
2022-08-03T12:58:14.750Z,1.90
2022-08-03T13:02:27.961Z,2.00
2022-08-03T13:06:35.748Z,2.20
2022-08-03T13:10:44.621Z,2.20
2022-08-03T13:14:54.719Z,2.00
2022-08-03T13:19:03.068Z,2.30
2022-08-03T13:23:12.992Z,2.30
2022-08-03T13:28:03.679Z,2.00
2022-08-03T13:31:59.553Z,2.10
2022-08-03T13:36:12.217Z,2.00
2022-08-03T13:40:23.599Z,1.90
2022-08-03T13:44:31.441Z,2.00
2022-08-03T13:48:39.311Z,2.10
2022-08-03T13:52:48.224Z,2.10
2022-08-03T13:57:00.680Z,2.30
2022-08-03T14:01:53.526Z,2.20
2022-08-03T14:05:54.808Z,2.30
2022-08-03T14:10:03.413Z,2.10
2022-08-03T14:14:10.720Z,2.20
2022-08-03T14:18:29.253Z,1.90
2022-08-03T14:22:43.173Z,2.10
2022-08-03T14:26:50.760Z,1.90
2022-08-03T14:30:59.706Z,2.20
2022-08-03T14:35:09.141Z,2.00
2022-08-03T14:39:17.501Z,2.20
2022-08-03T14:43:25.140Z,2.40
2022-08-03T14:48:23.371Z,2.40
2022-08-03T14:52:04.074Z,1.90
2022-08-03T14:56:11.450Z,2.20
2022-08-03T15:00:19.866Z,2.50
2022-08-03T15:04:27.241Z,2.00
2022-08-03T15:08:34.710Z,1.80
2022-08-03T15:12:42.052Z,1.90
2022-08-03T15:16:49.878Z,2.30
2022-08-03T15:20:57.556Z,2.20
2022-08-03T15:26:04.056Z,2.20
2022-08-03T15:30:04.967Z,2.20
2022-08-03T15:34:03.279Z,2.10
2022-08-03T15:38:11.120Z,2.00
2022-08-03T15:42:18.971Z,2.20
2022-08-03T15:46:29.745Z,2.30
2022-08-03T15:50:38.114Z,2.20
2022-08-03T15:54:45.949Z,2.20
2022-08-03T15:59:03.154Z,2.40
2022-08-03T16:03:21.362Z,2.30
2022-08-03T16:08:03.459Z,2.20
2022-08-03T16:12:16.154Z,2.20
2022-08-03T16:16:24.554Z,2.30
2022-08-03T16:20:35.023Z,2.40
2022-08-03T16:24:43.520Z,2.20
2022-08-03T16:28:51.212Z,2.20
2022-08-03T16:32:58.532Z,2.50
2022-08-03T16:37:28.485Z,2.30
2022-08-03T16:41:53.976Z,2.20
2022-08-03T16:46:05.012Z,2.10
2022-08-03T16:50:19.507Z,2.10
2022-08-03T16:54:27.962Z,2.30
2022-08-03T16:58:42.404Z,2.20
2022-08-03T17:02:54.824Z,2.10
2022-08-03T17:07:04.805Z,2.30
2022-08-03T17:11:12.748Z,2.30
2022-08-03T17:15:37.987Z,2.00
2022-08-03T17:19:55.168Z,2.20
2022-08-03T17:24:12.047Z,2.30
2022-08-03T17:28:49.199Z,2.30
2022-08-03T17:32:56.646Z,2.00
2022-08-03T17:37:06.214Z,2.50
2022-08-03T17:41:14.711Z,2.40
2022-08-03T17:45:24.115Z,2.40
2022-08-03T17:49:52.512Z,2.80
2022-08-03T17:54:18.137Z,2.80
2022-08-03T17:58:34.841Z,2.80
2022-08-03T18:03:06.297Z,2.60
2022-08-03T18:07:19.860Z,3.30
2022-08-03T18:11:35.638Z,2.80
2022-08-03T18:15:48.728Z,2.70
2022-08-03T18:20:03.427Z,2.50
2022-08-03T18:24:13.989Z,2.50
2022-08-03T18:28:23.497Z,2.70
2022-08-03T18:32:31.249Z,2.60
2022-08-03T18:36:41.107Z,3.00
2022-08-03T18:40:49.588Z,2.80
2022-08-03T18:44:57.672Z,2.60
2022-08-03T18:49:14.341Z,2.60
2022-08-03T18:54:02.632Z,3.10
2022-08-03T18:58:17.515Z,2.90
2022-08-03T19:02:34.491Z,3.00
2022-08-03T19:06:47.371Z,2.60
2022-08-03T19:11:00.833Z,3.00
2022-08-03T19:15:12.596Z,3.40
2022-08-03T19:19:22.769Z,3.00
2022-08-03T19:23:34.074Z,3.10
2022-08-03T19:27:43.451Z,2.90
2022-08-03T19:31:57.955Z,3.30
2022-08-03T19:36:10.673Z,2.90
2022-08-03T19:40:19.845Z,2.90
2022-08-03T19:44:32.495Z,2.90
2022-08-03T19:48:44.741Z,3.40
2022-08-03T19:52:53.201Z,3.40
2022-08-03T19:57:02.042Z,3.40
2022-08-03T20:01:21.243Z,3.10
2022-08-03T20:05:29.563Z,3.90
2022-08-03T20:09:56.470Z,4.00
2022-08-03T20:14:05.371Z,3.70
2022-08-03T20:22:48.250Z,3.80
2022-08-03T20:26:57.914Z,3.80
2022-08-03T20:31:05.578Z,3.90
2022-08-03T20:35:14.225Z,3.70
2022-08-03T20:39:21.948Z,3.80
2022-08-03T20:43:30.169Z,3.70
2022-08-03T20:47:50.254Z,4.20
2022-08-03T20:51:58.514Z,3.80
2022-08-03T20:56:11.327Z,3.80
2022-08-03T21:00:22.638Z,4.30
2022-08-03T21:04:30.455Z,4.40
2022-08-03T21:08:46.937Z,4.00
2022-08-03T21:13:03.878Z,3.70
2022-08-03T21:13:15.178Z,4.10
2022-08-03T21:17:40.004Z,4.40
2022-08-03T21:21:50.965Z,4.10
2022-08-03T21:25:59.949Z,4.60
2022-08-03T21:30:10.754Z,4.30
2022-08-03T21:34:18.260Z,4.30
2022-08-03T21:38:30.183Z,4.30
2022-08-03T21:42:38.135Z,4.00
2022-08-03T21:46:45.879Z,4.20
2022-08-03T21:50:54.015Z,4.70
2022-08-03T21:55:04.818Z,4.40
2022-08-03T21:59:17.228Z,4.10
2022-08-03T22:03:27.881Z,4.30
2022-08-03T22:07:36.835Z,4.00
2022-08-03T22:11:44.611Z,4.80
2022-08-03T22:15:52.546Z,4.00
2022-08-03T22:19:59.916Z,4.40
2022-08-03T22:24:09.481Z,4.10
2022-08-03T22:28:17.624Z,4.20
2022-08-03T22:32:25.033Z,3.90
2022-08-03T22:36:33.575Z,3.80
2022-08-03T22:40:42.107Z,4.30
2022-08-03T22:44:50.519Z,4.00
2022-08-03T22:48:58.613Z,4.20
2022-08-03T22:53:06.528Z,4.40
2022-08-03T22:57:14.442Z,3.60
2022-08-03T23:01:26.543Z,4.10
2022-08-03T23:06:00.955Z,3.80
2022-08-03T23:10:06.761Z,3.70
2022-08-03T23:14:16.597Z,4.20
2022-08-03T23:18:26.363Z,4.00
2022-08-03T23:22:36.451Z,4.20
2022-08-03T23:26:44.540Z,3.90
2022-08-03T23:30:52.712Z,3.90
2022-08-03T23:35:20.335Z,4.00
2022-08-03T23:39:29.228Z,3.80
2022-08-03T23:43:50.974Z,4.10
2022-08-03T23:47:59.941Z,4.20
2022-08-03T23:52:14.847Z,4.40
2022-08-03T23:56:29.565Z,4.00
